sensor_id;sensor_type;location;lat;lon;timestamp;pressure;altitude;pressure_sealevel;temperature;humidity
58662;BME280;44432;49.786;22.760;2022-08-01T00:00:25;98889.47;;;17.37;72.83
58662;BME280;44432;49.786;22.760;2022-08-01T00:03:08;98890.48;;;17.36;72.80
58662;BME280;44432;49.786;22.760;2022-08-01T00:05:39;98888.92;;;17.34;72.53
58662;BME280;44432;49.786;22.760;2022-08-01T00:08:12;98889.04;;;17.33;72.51
58662;BME280;44432;49.786;22.760;2022-08-01T00:10:43;98890.64;;;17.31;72.51
58662;BME280;44432;49.786;22.760;2022-08-01T00:13:13;98889.56;;;17.29;72.50
58662;BME280;44432;49.786;22.760;2022-08-01T00:15:44;98887.11;;;17.27;72.58
58662;BME280;44432;49.786;22.760;2022-08-01T00:18:15;98888.39;;;17.29;72.66
58662;BME280;44432;49.786;22.760;2022-08-01T00:20:45;98889.19;;;17.29;72.66
58662;BME280;44432;49.786;22.760;2022-08-01T00:23:16;98891.75;;;17.28;72.53
58662;BME280;44432;49.786;22.760;2022-08-01T00:25:46;98893.98;;;17.25;72.57
58662;BME280;44432;49.786;22.760;2022-08-01T00:28:17;98896.29;;;17.24;72.70
58662;BME280;44432;49.786;22.760;2022-08-01T00:30:47;98900.86;;;17.22;72.68
58662;BME280;44432;49.786;22.760;2022-08-01T00:33:18;98897.34;;;17.21;72.78
58662;BME280;44432;49.786;22.760;2022-08-01T00:35:48;98898.04;;;17.21;72.80
58662;BME280;44432;49.786;22.760;2022-08-01T00:38:19;98888.70;;;17.21;72.87
58662;BME280;44432;49.786;22.760;2022-08-01T00:40:50;98887.48;;;17.21;72.79
58662;BME280;44432;49.786;22.760;2022-08-01T00:43:20;98887.36;;;17.19;72.89
58662;BME280;44432;49.786;22.760;2022-08-01T00:45:51;98884.11;;;17.17;72.82
58662;BME280;44432;49.786;22.760;2022-08-01T00:48:21;98889.65;;;17.16;72.86
58662;BME280;44432;49.786;22.760;2022-08-01T00:50:52;98890.61;;;17.16;72.91
58662;BME280;44432;49.786;22.760;2022-08-01T00:53:23;98887.41;;;17.16;72.89
58662;BME280;44432;49.786;22.760;2022-08-01T00:55:54;98889.06;;;17.16;73.03
58662;BME280;44432;49.786;22.760;2022-08-01T00:58:26;98888.80;;;17.15;73.05
58662;BME280;44432;49.786;22.760;2022-08-01T01:01:00;98882.87;;;17.11;73.08
58662;BME280;44432;49.786;22.760;2022-08-01T01:03:31;98881.54;;;17.13;73.16
58662;BME280;44432;49.786;22.760;2022-08-01T01:06:14;98878.56;;;17.14;73.33
58662;BME280;44432;49.786;22.760;2022-08-01T01:08:52;98874.34;;;17.15;73.37
58662;BME280;44432;49.786;22.760;2022-08-01T01:11:28;98873.60;;;17.16;73.40
58662;BME280;44432;49.786;22.760;2022-08-01T01:14:04;98870.39;;;17.12;73.29
58662;BME280;44432;49.786;22.760;2022-08-01T01:16:36;98869.16;;;17.09;73.39
58662;BME280;44432;49.786;22.760;2022-08-01T01:19:13;98871.98;;;17.09;73.53
58662;BME280;44432;49.786;22.760;2022-08-01T01:22:05;98879.45;;;17.06;73.55
58662;BME280;44432;49.786;22.760;2022-08-01T01:24:44;98874.02;;;17.06;73.62
58662;BME280;44432;49.786;22.760;2022-08-01T01:27:21;98869.31;;;17.08;73.78
58662;BME280;44432;49.786;22.760;2022-08-01T01:29:57;98869.10;;;17.09;73.91
58662;BME280;44432;49.786;22.760;2022-08-01T01:32:31;98871.50;;;17.09;73.93
58662;BME280;44432;49.786;22.760;2022-08-01T01:35:07;98872.67;;;17.10;73.94
58662;BME280;44432;49.786;22.760;2022-08-01T01:37:40;98876.14;;;17.08;73.97
58662;BME280;44432;49.786;22.760;2022-08-01T01:40:13;98876.36;;;17.07;73.99
58662;BME280;44432;49.786;22.760;2022-08-01T01:42:44;98875.71;;;17.05;74.02
58662;BME280;44432;49.786;22.760;2022-08-01T01:45:16;98875.59;;;17.01;73.98
58662;BME280;44432;49.786;22.760;2022-08-01T01:47:48;98877.52;;;16.98;74.05
58662;BME280;44432;49.786;22.760;2022-08-01T01:50:21;98872.44;;;16.92;74.28
58662;BME280;44432;49.786;22.760;2022-08-01T01:52:53;98874.03;;;16.90;74.46
58662;BME280;44432;49.786;22.760;2022-08-01T01:55:27;98871.73;;;16.88;74.59
58662;BME280;44432;49.786;22.760;2022-08-01T01:57:59;98876.52;;;16.84;74.64
58662;BME280;44432;49.786;22.760;2022-08-01T02:00:31;98876.99;;;16.82;74.89
58662;BME280;44432;49.786;22.760;2022-08-01T02:03:05;98874.48;;;16.82;74.97
58662;BME280;44432;49.786;22.760;2022-08-01T02:05:39;98878.15;;;16.80;75.06
58662;BME280;44432;49.786;22.760;2022-08-01T02:08:12;98880.02;;;16.79;75.28
58662;BME280;44432;49.786;22.760;2022-08-01T02:10:45;98877.15;;;16.81;75.27
58662;BME280;44432;49.786;22.760;2022-08-01T02:13:31;98877.41;;;16.79;75.38
58662;BME280;44432;49.786;22.760;2022-08-01T02:16:04;98877.99;;;16.78;75.63
58662;BME280;44432;49.786;22.760;2022-08-01T02:18:36;98873.73;;;16.77;75.93
58662;BME280;44432;49.786;22.760;2022-08-01T02:21:12;98876.02;;;16.75;76.16
58662;BME280;44432;49.786;22.760;2022-08-01T02:23:43;98879.36;;;16.72;76.32
58662;BME280;44432;49.786;22.760;2022-08-01T02:26:16;98879.94;;;16.68;76.49
58662;BME280;44432;49.786;22.760;2022-08-01T02:28:51;98879.71;;;16.67;76.90
58662;BME280;44432;49.786;22.760;2022-08-01T02:31:23;98879.98;;;16.64;77.10
58662;BME280;44432;49.786;22.760;2022-08-01T02:33:58;98880.23;;;16.60;77.36
58662;BME280;44432;49.786;22.760;2022-08-01T02:36:33;98884.42;;;16.56;77.46
58662;BME280;44432;49.786;22.760;2022-08-01T02:39:09;98886.91;;;16.52;77.71
58662;BME280;44432;49.786;22.760;2022-08-01T02:41:43;98889.67;;;16.49;77.98
58662;BME280;44432;49.786;22.760;2022-08-01T02:44:22;98898.23;;;16.47;78.03
58662;BME280;44432;49.786;22.760;2022-08-01T02:46:56;98900.19;;;16.42;78.33
58662;BME280;44432;49.786;22.760;2022-08-01T02:49:33;98904.80;;;16.39;78.45
58662;BME280;44432;49.786;22.760;2022-08-01T02:52:09;98907.45;;;16.35;78.70
58662;BME280;44432;49.786;22.760;2022-08-01T02:54:41;98903.73;;;16.34;78.88
58662;BME280;44432;49.786;22.760;2022-08-01T02:57:14;98906.27;;;16.34;79.07
58662;BME280;44432;49.786;22.760;2022-08-01T02:59:47;98903.34;;;16.33;79.20
58662;BME280;44432;49.786;22.760;2022-08-01T03:02:19;98905.84;;;16.32;79.43
58662;BME280;44432;49.786;22.760;2022-08-01T03:04:52;98902.16;;;16.30;79.46
58662;BME280;44432;49.786;22.760;2022-08-01T03:07:23;98901.77;;;16.30;79.72
58662;BME280;44432;49.786;22.760;2022-08-01T03:09:55;98900.98;;;16.29;79.67
58662;BME280;44432;49.786;22.760;2022-08-01T03:12:28;98907.25;;;16.28;79.85
58662;BME280;44432;49.786;22.760;2022-08-01T03:15:01;98905.76;;;16.27;79.99
58662;BME280;44432;49.786;22.760;2022-08-01T03:17:33;98903.78;;;16.25;80.09
58662;BME280;44432;49.786;22.760;2022-08-01T03:20:06;98899.35;;;16.24;80.26
58662;BME280;44432;49.786;22.760;2022-08-01T03:22:40;98903.83;;;16.23;80.42
58662;BME280;44432;49.786;22.760;2022-08-01T03:25:13;98900.88;;;16.23;80.59
58662;BME280;44432;49.786;22.760;2022-08-01T03:27:47;98899.87;;;16.21;80.70
58662;BME280;44432;49.786;22.760;2022-08-01T03:30:21;98895.34;;;16.21;80.90
58662;BME280;44432;49.786;22.760;2022-08-01T03:32:52;98900.25;;;16.21;80.96
58662;BME280;44432;49.786;22.760;2022-08-01T03:35:25;98902.16;;;16.22;81.09
58662;BME280;44432;49.786;22.760;2022-08-01T03:37:58;98907.11;;;16.23;81.26
58662;BME280;44432;49.786;22.760;2022-08-01T03:40:30;98907.17;;;16.23;81.07
58662;BME280;44432;49.786;22.760;2022-08-01T03:43:05;98910.75;;;16.24;81.33
58662;BME280;44432;49.786;22.760;2022-08-01T03:45:40;98907.67;;;16.27;81.57
58662;BME280;44432;49.786;22.760;2022-08-01T03:48:16;98907.09;;;16.27;81.30
58662;BME280;44432;49.786;22.760;2022-08-01T03:50:50;98904.91;;;16.28;81.34
58662;BME280;44432;49.786;22.760;2022-08-01T03:53:24;98905.71;;;16.30;81.36
58662;BME280;44432;49.786;22.760;2022-08-01T03:55:57;98912.13;;;16.32;81.38
58662;BME280;44432;49.786;22.760;2022-08-01T03:58:29;98916.23;;;16.34;81.34
58662;BME280;44432;49.786;22.760;2022-08-01T04:01:00;98917.31;;;16.36;81.34
58662;BME280;44432;49.786;22.760;2022-08-01T04:03:31;98916.69;;;16.38;81.22
58662;BME280;44432;49.786;22.760;2022-08-01T04:06:05;98919.66;;;16.39;81.23
58662;BME280;44432;49.786;22.760;2022-08-01T04:08:38;98920.71;;;16.43;81.37
58662;BME280;44432;49.786;22.760;2022-08-01T04:11:10;98919.45;;;16.47;81.29
58662;BME280;44432;49.786;22.760;2022-08-01T04:13:41;98920.90;;;16.50;81.27
58662;BME280;44432;49.786;22.760;2022-08-01T04:16:12;98922.63;;;16.55;81.33
58662;BME280;44432;49.786;22.760;2022-08-01T04:18:42;98930.02;;;16.60;81.23
58662;BME280;44432;49.786;22.760;2022-08-01T04:21:13;98928.23;;;16.66;81.04
58662;BME280;44432;49.786;22.760;2022-08-01T04:23:45;98922.59;;;16.68;80.94
58662;BME280;44432;49.786;22.760;2022-08-01T04:26:17;98922.96;;;16.72;81.09
58662;BME280;44432;49.786;22.760;2022-08-01T04:28:49;98922.23;;;16.74;80.90
58662;BME280;44432;49.786;22.760;2022-08-01T04:31:22;98927.52;;;16.76;80.81
58662;BME280;44432;49.786;22.760;2022-08-01T04:33:56;98926.13;;;16.75;80.52
58662;BME280;44432;49.786;22.760;2022-08-01T04:36:28;98921.49;;;16.75;80.63
58662;BME280;44432;49.786;22.760;2022-08-01T04:39:02;98924.55;;;16.78;80.82
58662;BME280;44432;49.786;22.760;2022-08-01T04:41:35;98921.30;;;16.82;81.05
58662;BME280;44432;49.786;22.760;2022-08-01T04:44:07;98924.30;;;16.85;80.88
58662;BME280;44432;49.786;22.760;2022-08-01T04:46:38;98922.92;;;16.87;80.94
58662;BME280;44432;49.786;22.760;2022-08-01T04:49:09;98926.88;;;16.91;81.01
58662;BME280;44432;49.786;22.760;2022-08-01T04:51:53;98925.77;;;16.92;80.66
58662;BME280;44432;49.786;22.760;2022-08-01T04:54:27;98926.93;;;16.93;80.73
58662;BME280;44432;49.786;22.760;2022-08-01T04:56:59;98931.52;;;16.91;80.38
58662;BME280;44432;49.786;22.760;2022-08-01T04:59:30;98934.77;;;16.89;80.52
58662;BME280;44432;49.786;22.760;2022-08-01T05:02:12;98936.05;;;16.87;80.54
58662;BME280;44432;49.786;22.760;2022-08-01T05:04:43;98943.92;;;16.87;80.58
58662;BME280;44432;49.786;22.760;2022-08-01T05:07:14;98945.21;;;16.87;80.35
58662;BME280;44432;49.786;22.760;2022-08-01T05:09:45;98946.15;;;16.83;80.24
58662;BME280;44432;49.786;22.760;2022-08-01T05:12:16;98949.41;;;16.84;80.16
58662;BME280;44432;49.786;22.760;2022-08-01T05:14:46;98949.63;;;16.83;80.00
58662;BME280;44432;49.786;22.760;2022-08-01T05:17:17;98951.64;;;16.80;80.11
58662;BME280;44432;49.786;22.760;2022-08-01T05:19:48;98954.52;;;16.80;80.10
58662;BME280;44432;49.786;22.760;2022-08-01T05:22:18;98952.17;;;16.82;80.19
58662;BME280;44432;49.786;22.760;2022-08-01T05:24:49;98952.50;;;16.83;79.95
58662;BME280;44432;49.786;22.760;2022-08-01T05:27:19;98950.16;;;16.85;80.01
58662;BME280;44432;49.786;22.760;2022-08-01T05:29:50;98954.33;;;16.88;79.93
58662;BME280;44432;49.786;22.760;2022-08-01T05:32:20;98951.63;;;16.91;79.83
58662;BME280;44432;49.786;22.760;2022-08-01T05:34:51;98952.48;;;16.92;79.66
58662;BME280;44432;49.786;22.760;2022-08-01T05:37:21;98943.36;;;16.91;79.59
58662;BME280;44432;49.786;22.760;2022-08-01T05:39:52;98953.23;;;16.95;79.64
58662;BME280;44432;49.786;22.760;2022-08-01T05:42:22;98955.05;;;16.96;79.42
58662;BME280;44432;49.786;22.760;2022-08-01T05:44:53;98959.27;;;16.93;79.41
58662;BME280;44432;49.786;22.760;2022-08-01T05:47:24;98966.86;;;16.88;79.07
58662;BME280;44432;49.786;22.760;2022-08-01T05:49:54;98966.99;;;16.81;78.98
58662;BME280;44432;49.786;22.760;2022-08-01T05:52:25;98967.46;;;16.79;79.00
58662;BME280;44432;49.786;22.760;2022-08-01T05:54:55;98961.92;;;16.81;78.98
58662;BME280;44432;49.786;22.760;2022-08-01T05:57:26;98964.11;;;16.82;79.11
58662;BME280;44432;49.786;22.760;2022-08-01T05:59:56;98962.92;;;16.88;79.15
58662;BME280;44432;49.786;22.760;2022-08-01T06:02:27;98962.09;;;16.96;79.22
58662;BME280;44432;49.786;22.760;2022-08-01T06:04:58;98963.83;;;17.04;79.10
58662;BME280;44432;49.786;22.760;2022-08-01T06:07:28;98964.02;;;17.12;79.21
58662;BME280;44432;49.786;22.760;2022-08-01T06:09:59;98967.02;;;17.19;79.01
58662;BME280;44432;49.786;22.760;2022-08-01T06:12:29;98958.81;;;17.23;78.74
58662;BME280;44432;49.786;22.760;2022-08-01T06:15:02;98968.23;;;17.36;78.74
58662;BME280;44432;49.786;22.760;2022-08-01T06:17:33;98972.52;;;17.45;78.53
58662;BME280;44432;49.786;22.760;2022-08-01T06:20:04;98972.38;;;17.52;78.49
58662;BME280;44432;49.786;22.760;2022-08-01T06:22:35;98974.57;;;17.59;78.24
58662;BME280;44432;49.786;22.760;2022-08-01T06:25:08;98971.02;;;17.65;77.93
58662;BME280;44432;49.786;22.760;2022-08-01T06:27:39;98971.17;;;17.72;77.89
58662;BME280;44432;49.786;22.760;2022-08-01T06:30:11;98971.77;;;17.77;77.56
58662;BME280;44432;49.786;22.760;2022-08-01T06:32:41;98976.77;;;17.82;77.63
58662;BME280;44432;49.786;22.760;2022-08-01T06:35:12;98980.89;;;17.82;77.12
58662;BME280;44432;49.786;22.760;2022-08-01T06:37:43;98979.02;;;17.76;77.01
58662;BME280;44432;49.786;22.760;2022-08-01T06:40:15;98977.52;;;17.73;77.32
58662;BME280;44432;49.786;22.760;2022-08-01T06:42:47;98982.70;;;17.76;77.41
58662;BME280;44432;49.786;22.760;2022-08-01T06:45:18;98982.92;;;17.76;77.46
58662;BME280;44432;49.786;22.760;2022-08-01T06:47:51;98982.86;;;17.72;77.25
58662;BME280;44432;49.786;22.760;2022-08-01T06:50:22;98983.72;;;17.69;77.26
58662;BME280;44432;49.786;22.760;2022-08-01T06:52:52;98987.21;;;17.67;77.57
58662;BME280;44432;49.786;22.760;2022-08-01T06:55:23;98989.31;;;17.61;77.18
58662;BME280;44432;49.786;22.760;2022-08-01T06:57:54;98992.17;;;17.48;77.19
58662;BME280;44432;49.786;22.760;2022-08-01T07:00:25;98997.50;;;17.42;77.78
58662;BME280;44432;49.786;22.760;2022-08-01T07:02:57;98994.97;;;17.37;78.00
58662;BME280;44432;49.786;22.760;2022-08-01T07:05:29;98998.05;;;17.30;77.81
58662;BME280;44432;49.786;22.760;2022-08-01T07:08:00;99001.30;;;17.23;78.03
58662;BME280;44432;49.786;22.760;2022-08-01T07:10:31;98998.52;;;17.22;78.15
58662;BME280;44432;49.786;22.760;2022-08-01T07:13:01;99004.81;;;17.23;78.49
58662;BME280;44432;49.786;22.760;2022-08-01T07:15:32;99000.39;;;17.27;78.49
58662;BME280;44432;49.786;22.760;2022-08-01T07:18:02;99000.35;;;17.31;78.35
58662;BME280;44432;49.786;22.760;2022-08-01T07:20:33;98999.67;;;17.38;78.20
58662;BME280;44432;49.786;22.760;2022-08-01T07:23:04;99000.70;;;17.45;78.11
58662;BME280;44432;49.786;22.760;2022-08-01T07:25:34;99006.06;;;17.54;78.27
58662;BME280;44432;49.786;22.760;2022-08-01T07:28:05;99008.16;;;17.61;77.95
58662;BME280;44432;49.786;22.760;2022-08-01T07:30:36;99009.41;;;17.65;77.69
58662;BME280;44432;49.786;22.760;2022-08-01T07:33:06;99011.96;;;17.72;77.83
58662;BME280;44432;49.786;22.760;2022-08-01T07:35:37;99009.69;;;17.78;77.61
58662;BME280;44432;49.786;22.760;2022-08-01T07:38:08;99013.48;;;17.82;77.31
58662;BME280;44432;49.786;22.760;2022-08-01T07:40:39;99010.22;;;17.83;77.02
58662;BME280;44432;49.786;22.760;2022-08-01T07:43:10;99015.17;;;17.80;77.00
58662;BME280;44432;49.786;22.760;2022-08-01T07:45:41;99019.98;;;17.79;77.16
58662;BME280;44432;49.786;22.760;2022-08-01T07:48:12;99019.13;;;17.78;77.15
58662;BME280;44432;49.786;22.760;2022-08-01T07:50:42;99019.02;;;17.71;76.91
58662;BME280;44432;49.786;22.760;2022-08-01T07:53:13;99019.62;;;17.66;77.02
58662;BME280;44432;49.786;22.760;2022-08-01T07:55:43;99023.06;;;17.64;77.12
58662;BME280;44432;49.786;22.760;2022-08-01T07:58:14;99024.81;;;17.60;77.07
58662;BME280;44432;49.786;22.760;2022-08-01T08:00:45;99028.75;;;17.49;77.02
58662;BME280;44432;49.786;22.760;2022-08-01T08:03:15;99031.98;;;17.45;77.62
58662;BME280;44432;49.786;22.760;2022-08-01T08:05:46;99028.95;;;17.48;77.79
58662;BME280;44432;49.786;22.760;2022-08-01T08:08:17;99035.16;;;17.52;77.83
58662;BME280;44432;49.786;22.760;2022-08-01T08:10:47;99040.34;;;17.53;77.58
58662;BME280;44432;49.786;22.760;2022-08-01T08:13:18;99040.91;;;17.49;77.35
58662;BME280;44432;49.786;22.760;2022-08-01T08:15:48;99047.46;;;17.45;77.25
58662;BME280;44432;49.786;22.760;2022-08-01T08:18:19;99044.89;;;17.40;77.40
58662;BME280;44432;49.786;22.760;2022-08-01T08:20:49;99049.84;;;17.38;77.57
58662;BME280;44432;49.786;22.760;2022-08-01T08:23:20;99044.83;;;17.40;77.70
58662;BME280;44432;49.786;22.760;2022-08-01T08:26:13;99051.52;;;17.43;77.81
58662;BME280;44432;49.786;22.760;2022-08-01T08:28:44;99051.27;;;17.47;77.49
58662;BME280;44432;49.786;22.760;2022-08-01T08:31:15;99052.17;;;17.51;77.33
58662;BME280;44432;49.786;22.760;2022-08-01T08:33:46;99057.05;;;17.53;77.25
58662;BME280;44432;49.786;22.760;2022-08-01T08:36:16;99063.94;;;17.55;77.23
58662;BME280;44432;49.786;22.760;2022-08-01T08:38:47;99062.39;;;17.56;77.15
58662;BME280;44432;49.786;22.760;2022-08-01T08:41:18;99062.18;;;17.57;77.21
58662;BME280;44432;49.786;22.760;2022-08-01T08:43:49;99063.62;;;17.54;77.09
58662;BME280;44432;49.786;22.760;2022-08-01T08:46:20;99064.67;;;17.53;77.08
58662;BME280;44432;49.786;22.760;2022-08-01T08:48:52;99067.08;;;17.54;77.21
58662;BME280;44432;49.786;22.760;2022-08-01T08:51:25;99070.55;;;17.55;77.09
58662;BME280;44432;49.786;22.760;2022-08-01T08:53:57;99071.30;;;17.53;77.23
58662;BME280;44432;49.786;22.760;2022-08-01T08:56:29;99076.80;;;17.54;77.27
58662;BME280;44432;49.786;22.760;2022-08-01T08:59:04;99073.48;;;17.54;77.11
58662;BME280;44432;49.786;22.760;2022-08-01T09:01:34;99085.23;;;17.54;77.02
58662;BME280;44432;49.786;22.760;2022-08-01T09:04:06;99085.86;;;17.48;77.00
58662;BME280;44432;49.786;22.760;2022-08-01T09:06:37;99085.69;;;17.47;77.30
58662;BME280;44432;49.786;22.760;2022-08-01T09:09:09;99087.30;;;17.48;77.31
58662;BME280;44432;49.786;22.760;2022-08-01T09:11:40;99088.63;;;17.48;77.37
58662;BME280;44432;49.786;22.760;2022-08-01T09:14:12;99086.20;;;17.54;77.35
58662;BME280;44432;49.786;22.760;2022-08-01T09:16:44;99095.16;;;17.69;77.45
58662;BME280;44432;49.786;22.760;2022-08-01T09:19:17;99087.52;;;17.91;77.17
58662;BME280;44432;49.786;22.760;2022-08-01T09:21:58;99088.94;;;18.19;76.96
58662;BME280;44432;49.786;22.760;2022-08-01T09:24:30;99090.17;;;18.42;76.53
58662;BME280;44432;49.786;22.760;2022-08-01T09:27:14;99087.70;;;18.54;76.06
58662;BME280;44432;49.786;22.760;2022-08-01T09:29:46;99089.58;;;18.61;75.91
58662;BME280;44432;49.786;22.760;2022-08-01T09:32:16;99094.09;;;18.66;75.48
58662;BME280;44432;49.786;22.760;2022-08-01T09:34:47;99093.34;;;18.67;75.15
58662;BME280;44432;49.786;22.760;2022-08-01T09:37:30;99089.89;;;18.73;74.63
58662;BME280;44432;49.786;22.760;2022-08-01T09:40:01;99089.20;;;18.91;74.60
58662;BME280;44432;49.786;22.760;2022-08-01T09:42:31;99089.45;;;19.17;74.23
58662;BME280;44432;49.786;22.760;2022-08-01T09:45:02;99088.48;;;19.45;73.86
58662;BME280;44432;49.786;22.760;2022-08-01T09:47:39;99090.33;;;19.75;73.47
58662;BME280;44432;49.786;22.760;2022-08-01T09:50:10;99085.83;;;20.06;72.85
58662;BME280;44432;49.786;22.760;2022-08-01T09:52:41;99082.58;;;20.24;71.79
58662;BME280;44432;49.786;22.760;2022-08-01T09:55:23;99083.30;;;20.35;71.38
58662;BME280;44432;49.786;22.760;2022-08-01T09:57:57;99084.20;;;20.46;71.14
58662;BME280;44432;49.786;22.760;2022-08-01T10:00:30;99082.18;;;20.56;70.61
58662;BME280;44432;49.786;22.760;2022-08-01T10:03:01;99081.25;;;20.64;70.21
58662;BME280;44432;49.786;22.760;2022-08-01T10:05:48;99081.77;;;20.71;69.06
58662;BME280;44432;49.786;22.760;2022-08-01T10:08:19;99081.84;;;20.76;68.95
58662;BME280;44432;49.786;22.760;2022-08-01T10:11:06;99082.45;;;20.95;68.97
58662;BME280;44432;49.786;22.760;2022-08-01T10:13:37;99084.61;;;21.25;68.21
58662;BME280;44432;49.786;22.760;2022-08-01T10:16:09;99076.27;;;21.52;67.48
58662;BME280;44432;49.786;22.760;2022-08-01T10:18:43;99074.77;;;21.71;66.45
58662;BME280;44432;49.786;22.760;2022-08-01T10:21:15;99073.94;;;21.67;65.37
58662;BME280;44432;49.786;22.760;2022-08-01T10:23:47;99070.67;;;21.53;65.48
58662;BME280;44432;49.786;22.760;2022-08-01T10:26:18;99068.83;;;21.64;65.57
58662;BME280;44432;49.786;22.760;2022-08-01T10:28:49;99062.98;;;21.74;64.93
58662;BME280;44432;49.786;22.760;2022-08-01T10:31:20;99067.23;;;21.89;64.98
58662;BME280;44432;49.786;22.760;2022-08-01T10:33:52;99062.50;;;22.06;64.78
58662;BME280;44432;49.786;22.760;2022-08-01T10:36:23;99065.81;;;22.17;63.86
58662;BME280;44432;49.786;22.760;2022-08-01T10:38:55;99067.81;;;22.20;63.63
58662;BME280;44432;49.786;22.760;2022-08-01T10:41:27;99067.41;;;22.25;63.49
58662;BME280;44432;49.786;22.760;2022-08-01T10:43:58;99070.60;;;22.31;63.15
58662;BME280;44432;49.786;22.760;2022-08-01T10:46:32;99069.73;;;22.38;63.31
58662;BME280;44432;49.786;22.760;2022-08-01T10:49:04;99073.58;;;22.56;62.89
58662;BME280;44432;49.786;22.760;2022-08-01T10:51:38;99073.37;;;22.61;61.86
58662;BME280;44432;49.786;22.760;2022-08-01T10:54:10;99071.79;;;22.59;61.87
58662;BME280;44432;49.786;22.760;2022-08-01T10:56:45;99070.45;;;22.68;62.01
58662;BME280;44432;49.786;22.760;2022-08-01T10:59:21;99069.80;;;22.77;61.72
58662;BME280;44432;49.786;22.760;2022-08-01T11:02:03;99066.22;;;22.86;61.12
58662;BME280;44432;49.786;22.760;2022-08-01T11:04:47;99070.99;;;22.91;60.63
58662;BME280;44432;49.786;22.760;2022-08-01T11:07:23;99065.66;;;22.97;59.84
58662;BME280;44432;49.786;22.760;2022-08-01T11:10:07;99060.83;;;23.01;59.01
58662;BME280;44432;49.786;22.760;2022-08-01T11:12:43;99060.67;;;23.12;58.32
58662;BME280;44432;49.786;22.760;2022-08-01T11:15:33;99056.40;;;23.21;57.82
58662;BME280;44432;49.786;22.760;2022-08-01T11:18:28;99051.13;;;23.23;57.34
58662;BME280;44432;49.786;22.760;2022-08-01T11:20:58;99051.40;;;23.28;56.03
58662;BME280;44432;49.786;22.760;2022-08-01T11:23:29;99050.39;;;23.14;55.46
58662;BME280;44432;49.786;22.760;2022-08-01T11:26:21;99048.50;;;23.06;54.82
58662;BME280;44432;49.786;22.760;2022-08-01T11:29:14;99042.31;;;22.88;53.83
58662;BME280;44432;49.786;22.760;2022-08-01T11:31:45;99039.45;;;22.68;53.32
58662;BME280;44432;49.786;22.760;2022-08-01T11:34:15;99044.48;;;22.69;53.53
58662;BME280;44432;49.786;22.760;2022-08-01T11:36:46;99048.12;;;22.83;52.77
58662;BME280;44432;49.786;22.760;2022-08-01T11:39:17;99044.75;;;22.92;51.92
58662;BME280;44432;49.786;22.760;2022-08-01T11:41:49;99040.75;;;22.96;51.12
58662;BME280;44432;49.786;22.760;2022-08-01T11:44:23;99041.10;;;23.10;52.26
58662;BME280;44432;49.786;22.760;2022-08-01T11:47:01;99047.33;;;23.32;52.44
58662;BME280;44432;49.786;22.760;2022-08-01T11:52:28;99044.73;;;23.83;52.45
58662;BME280;44432;49.786;22.760;2022-08-01T11:55:04;99044.02;;;23.98;51.89
58662;BME280;44432;49.786;22.760;2022-08-01T11:57:36;99035.80;;;24.14;52.49
58662;BME280;44432;49.786;22.760;2022-08-01T12:00:14;99039.01;;;24.34;52.49
58662;BME280;44432;49.786;22.760;2022-08-01T12:02:46;99041.69;;;24.54;52.26
58662;BME280;44432;49.786;22.760;2022-08-01T12:05:26;99044.80;;;24.65;51.83
58662;BME280;44432;49.786;22.760;2022-08-01T12:07:58;99043.21;;;24.67;50.99
58662;BME280;44432;49.786;22.760;2022-08-01T12:10:30;99041.80;;;24.66;50.61
58662;BME280;44432;49.786;22.760;2022-08-01T12:13:06;99039.61;;;24.73;49.92
58662;BME280;44432;49.786;22.760;2022-08-01T12:15:38;99034.96;;;24.77;49.41
58662;BME280;44432;49.786;22.760;2022-08-01T12:18:09;99031.79;;;24.85;49.42
58662;BME280;44432;49.786;22.760;2022-08-01T12:20:41;99031.23;;;24.86;48.75
58662;BME280;44432;49.786;22.760;2022-08-01T12:23:15;99030.66;;;24.89;48.66
58662;BME280;44432;49.786;22.760;2022-08-01T12:25:52;99028.23;;;24.98;48.51
58662;BME280;44432;49.786;22.760;2022-08-01T12:28:22;99030.67;;;25.05;48.04
58662;BME280;44432;49.786;22.760;2022-08-01T12:30:54;99029.73;;;25.16;48.23
58662;BME280;44432;49.786;22.760;2022-08-01T12:33:24;99034.20;;;25.24;47.96
58662;BME280;44432;49.786;22.760;2022-08-01T12:35:55;99031.13;;;25.29;47.86
58662;BME280;44432;49.786;22.760;2022-08-01T12:38:26;99032.61;;;25.25;46.60
58662;BME280;44432;49.786;22.760;2022-08-01T12:40:59;99036.02;;;25.13;46.55
58662;BME280;44432;49.786;22.760;2022-08-01T12:43:32;99034.27;;;25.08;46.97
58662;BME280;44432;49.786;22.760;2022-08-01T12:46:03;99035.88;;;25.14;46.70
58662;BME280;44432;49.786;22.760;2022-08-01T12:48:34;99040.42;;;25.22;45.35
58662;BME280;44432;49.786;22.760;2022-08-01T12:51:05;99038.56;;;25.15;45.55
58662;BME280;44432;49.786;22.760;2022-08-01T12:53:38;99037.50;;;25.13;45.35
58662;BME280;44432;49.786;22.760;2022-08-01T12:56:10;99041.02;;;25.20;45.34
58662;BME280;44432;49.786;22.760;2022-08-01T12:58:40;99036.47;;;25.33;44.72
58662;BME280;44432;49.786;22.760;2022-08-01T13:01:12;99033.63;;;25.45;44.13
58662;BME280;44432;49.786;22.760;2022-08-01T13:03:58;99033.56;;;25.51;42.89
58662;BME280;44432;49.786;22.760;2022-08-01T13:06:31;99034.66;;;25.32;42.89
58662;BME280;44432;49.786;22.760;2022-08-01T13:09:07;99031.02;;;25.29;43.77
58662;BME280;44432;49.786;22.760;2022-08-01T13:11:38;99027.88;;;25.44;44.14
58662;BME280;44432;49.786;22.760;2022-08-01T13:14:09;99029.78;;;25.63;43.91
58662;BME280;44432;49.786;22.760;2022-08-01T13:16:49;99026.87;;;25.72;43.59
58662;BME280;44432;49.786;22.760;2022-08-01T13:19:20;99030.97;;;25.76;42.66
58662;BME280;44432;49.786;22.760;2022-08-01T13:21:57;99025.30;;;25.79;42.91